Wan Hai 508 — 9VJJ6 — position and weather

sailwx.info

Track history (hours):
 
Tides and Currents Weather Stations Pressure Air Temp Water Temp Dewpoint Dewpoint Depression Visibility Wind Speed Wind Dir Waves Ship Positions

Wan Hai 508

Last reported at 2017-Nov-16 14:40 UTC. Time now 2017-Nov-19 18:09 UTC.
Position N 01°18' E 103°21'.

Length 269 m; draft 9.8 m.

Type: Cargo ship. MMSI: 565567000.

Date/timePositionNaut miles runAvg speedWind from/ knotsBaromVisibWave heightAir tempDewpointWater temp
2017-Nov-16 14:40N 01°18' E 103°21'519.4
2017-Nov-16 14:25N 01°14' E 103°24'819.6
2017-Nov-16 14:00N 01°12' E 103°32'714.1
2017-Nov-16 13:30N 01°12' E 103°39'510.3
2017-Nov-16 13:00N 01°15' E 103°43'4 7.5
2017-Nov-16 12:31N 01°16' E 103°47'0 0.2
2017-Nov-16 12:00N 01°16' E 103°47'0 0.0
2017-Nov-16 11:30N 01°16' E 103°47'0 0.0
2017-Nov-16 11:00N 01°16' E 103°47'0 0.0
2017-Nov-16 10:30N 01°16' E 103°47'0 0.0
2017-Nov-16 10:00N 01°16' E 103°47'0 0.0
2017-Nov-16 09:30N 01°16' E 103°47'0 0.0
2017-Nov-16 09:00N 01°16' E 103°47'0 0.0
2017-Nov-16 08:30N 01°16' E 103°47'0 0.0
2017-Nov-16 08:00N 01°16' E 103°47'0 0.0
2017-Nov-16 07:30N 01°16' E 103°47'0 0.0
2017-Nov-16 07:00N 01°16' E 103°47'0 0.0
2017-Nov-16 06:30N 01°16' E 103°47'0 0.0
2017-Nov-16 05:57N 01°16' E 103°47'0 0.0
2017-Nov-16 05:30N 01°16' E 103°47'0 0.0
2017-Nov-16 05:00N 01°16' E 103°47'0 0.0
2017-Nov-16 04:27N 01°16' E 103°47'0 0.0
2017-Nov-16 04:00N 01°16' E 103°47'0 0.0
2017-Nov-16 03:27N 01°16' E 103°47'0 0.0
2017-Nov-16 02:54N 01°16' E 103°47'0 0.0
2017-Nov-16 02:30N 01°16' E 103°47'0 0.0
2017-Nov-16 02:00N 01°16' E 103°47'0 0.0
2017-Nov-16 01:30N 01°16' E 103°47'0 0.3
2017-Nov-16 01:00N 01°16' E 103°47'2 4.2
2017-Nov-16 00:30N 01°14' E 103°47'510.4
2017-Nov-16 00:01N 01°13' E 103°52'3 6.5
2017-Nov-15 23:30N 01°16' E 103°50'1 1.0
2017-Nov-15 22:59N 01°16' E 103°50'0 0.0
2017-Nov-15 22:29N 01°16' E 103°50'0 0.0
2017-Nov-15 21:59N 01°16' E 103°50'0 0.0
2017-Nov-15 21:29N 01°16' E 103°50'0 0.0
2017-Nov-15 20:56N 01°16' E 103°50'0 0.0
2017-Nov-15 20:05N 01°16' E 103°50'0 0.0
2017-Nov-15 19:59N 01°16' E 103°50'0 0.0
2017-Nov-15 19:29N 01°16' E 103°50'0 0.0
2017-Nov-15 18:53N 01°16' E 103°50'0 0.0
2017-Nov-15 18:23N 01°16' E 103°50'0 0.0
2017-Nov-15 17:53N 01°16' E 103°50'0 0.0
2017-Nov-15 17:29N 01°16' E 103°50'0 0.0
2017-Nov-15 16:59N 01°16' E 103°50'0 0.0
2017-Nov-15 16:23N 01°16' E 103°50'0 0.0
2017-Nov-15 15:59N 01°16' E 103°50'0 0.0
2017-Nov-15 15:29N 01°16' E 103°50'0 0.0
2017-Nov-15 14:59N 01°16' E 103°50'0 0.0
2017-Nov-15 14:23N 01°16' E 103°50'0 0.0
2017-Nov-15 13:59N 01°16' E 103°50'0 0.0
2017-Nov-15 13:26N 01°16' E 103°50'0 0.0
2017-Nov-15 12:59N 01°16' E 103°50'0 0.0
2017-Nov-15 12:29N 01°16' E 103°50'0 0.0
2017-Nov-15 11:56N 01°16' E 103°50'0 0.0
2017-Nov-15 11:29N 01°16' E 103°50'0 0.0
2017-Nov-15 10:59N 01°16' E 103°50'0 0.0
2017-Nov-15 10:23N 01°16' E 103°50'0 0.0
2017-Nov-15 09:59N 01°16' E 103°50'0 0.0
2017-Nov-15 09:29N 01°16' E 103°50'0 0.0
2017-Nov-15 09:01N 01°16' E 103°50'1 2.9
2017-Nov-15 08:31N 01°16' E 103°51'0 0.8
2017-Nov-15 08:00N 01°15' E 103°52'2 4.1
2017-Nov-15 07:31N 01°14' E 103°53'3 6.1
2017-Nov-15 07:00N 01°12' E 103°52'3 6.4
2017-Nov-15 06:30N 01°10' E 103°49'611.9
2017-Nov-15 06:00N 01°06' E 103°45'713.3
2017-Nov-15 05:30N 01°03' E 103°39'917.8
2017-Nov-15 05:00N 01°07' E 103°31'1020.5
2017-Nov-15 04:30N 01°13' E 103°22'  
Track history (hours):
 
Tides and Currents Weather Stations Pressure Air Temp Water Temp Dewpoint Dewpoint Depression Visibility Wind Speed Wind Dir Waves Ship Positions

Wan Hai 508

Last reported at 2017-Nov-16 14:40 UTC. Time now 2017-Nov-19 18:09 UTC.
Position N 01°18' E 103°21'.

Length 269 m; draft 9.8 m.

Type: Cargo ship. MMSI: 565567000.

Date/timePositionNaut miles runAvg speedWind from/ knotsBaromVisibWave heightAir tempDewpointWater temp
2017-Nov-16 14:40N 01°18' E 103°21'519.4
2017-Nov-16 14:25N 01°14' E 103°24'819.6
2017-Nov-16 14:00N 01°12' E 103°32'714.1
2017-Nov-16 13:30N 01°12' E 103°39'510.3
2017-Nov-16 13:00N 01°15' E 103°43'4 7.5
2017-Nov-16 12:31N 01°16' E 103°47'0 0.2
2017-Nov-16 12:00N 01°16' E 103°47'0 0.0
2017-Nov-16 11:30N 01°16' E 103°47'0 0.0
2017-Nov-16 11:00N 01°16' E 103°47'0 0.0
2017-Nov-16 10:30N 01°16' E 103°47'0 0.0
2017-Nov-16 10:00N 01°16' E 103°47'0 0.0
2017-Nov-16 09:30N 01°16' E 103°47'0 0.0
2017-Nov-16 09:00N 01°16' E 103°47'0 0.0
2017-Nov-16 08:30N 01°16' E 103°47'0 0.0
2017-Nov-16 08:00N 01°16' E 103°47'0 0.0
2017-Nov-16 07:30N 01°16' E 103°47'0 0.0
2017-Nov-16 07:00N 01°16' E 103°47'0 0.0
2017-Nov-16 06:30N 01°16' E 103°47'0 0.0
2017-Nov-16 05:57N 01°16' E 103°47'0 0.0
2017-Nov-16 05:30N 01°16' E 103°47'0 0.0
2017-Nov-16 05:00N 01°16' E 103°47'0 0.0
2017-Nov-16 04:27N 01°16' E 103°47'0 0.0
2017-Nov-16 04:00N 01°16' E 103°47'0 0.0
2017-Nov-16 03:27N 01°16' E 103°47'0 0.0
2017-Nov-16 02:54N 01°16' E 103°47'0 0.0
2017-Nov-16 02:30N 01°16' E 103°47'0 0.0
2017-Nov-16 02:00N 01°16' E 103°47'0 0.0
2017-Nov-16 01:30N 01°16' E 103°47'0 0.3
2017-Nov-16 01:00N 01°16' E 103°47'2 4.2
2017-Nov-16 00:30N 01°14' E 103°47'510.4
2017-Nov-16 00:01N 01°13' E 103°52'3 6.5
2017-Nov-15 23:30N 01°16' E 103°50'1 1.0
2017-Nov-15 22:59N 01°16' E 103°50'0 0.0
2017-Nov-15 22:29N 01°16' E 103°50'0 0.0
2017-Nov-15 21:59N 01°16' E 103°50'0 0.0
2017-Nov-15 21:29N 01°16' E 103°50'0 0.0
2017-Nov-15 20:56N 01°16' E 103°50'0 0.0
2017-Nov-15 20:05N 01°16' E 103°50'0 0.0
2017-Nov-15 19:59N 01°16' E 103°50'0 0.0
2017-Nov-15 19:29N 01°16' E 103°50'0 0.0
2017-Nov-15 18:53N 01°16' E 103°50'0 0.0
2017-Nov-15 18:23N 01°16' E 103°50'0 0.0
2017-Nov-15 17:53N 01°16' E 103°50'0 0.0
2017-Nov-15 17:29N 01°16' E 103°50'0 0.0
2017-Nov-15 16:59N 01°16' E 103°50'0 0.0
2017-Nov-15 16:23N 01°16' E 103°50'0 0.0
2017-Nov-15 15:59N 01°16' E 103°50'0 0.0
2017-Nov-15 15:29N 01°16' E 103°50'0 0.0
2017-Nov-15 14:59N 01°16' E 103°50'0 0.0
2017-Nov-15 14:23N 01°16' E 103°50'0 0.0
2017-Nov-15 13:59N 01°16' E 103°50'0 0.0
2017-Nov-15 13:26N 01°16' E 103°50'0 0.0
2017-Nov-15 12:59N 01°16' E 103°50'0 0.0
2017-Nov-15 12:29N 01°16' E 103°50'0 0.0
2017-Nov-15 11:56N 01°16' E 103°50'0 0.0
2017-Nov-15 11:29N 01°16' E 103°50'0 0.0
2017-Nov-15 10:59N 01°16' E 103°50'0 0.0
2017-Nov-15 10:23N 01°16' E 103°50'0 0.0
2017-Nov-15 09:59N 01°16' E 103°50'0 0.0
2017-Nov-15 09:29N 01°16' E 103°50'0 0.0
2017-Nov-15 09:01N 01°16' E 103°50'1 2.9
2017-Nov-15 08:31N 01°16' E 103°51'0 0.8
2017-Nov-15 08:00N 01°15' E 103°52'2 4.1
2017-Nov-15 07:31N 01°14' E 103°53'3 6.1
2017-Nov-15 07:00N 01°12' E 103°52'3 6.4
2017-Nov-15 06:30N 01°10' E 103°49'611.9
2017-Nov-15 06:00N 01°06' E 103°45'713.3
2017-Nov-15 05:30N 01°03' E 103°39'917.8
2017-Nov-15 05:00N 01°07' E 103°31'1020.5
2017-Nov-15 04:30N 01°13' E 103°22'  

Dump ship's entire track history